createdAt,value
2022-09-06T00:00:14.243Z,4.43
2022-09-06T00:00:56.179Z,4.30
2022-09-06T00:01:38.030Z,5.10
2022-09-06T00:02:20.069Z,4.00
2022-09-06T00:03:02.227Z,4.22
2022-09-06T00:03:45.186Z,5.07
2022-09-06T00:04:27.036Z,4.07
2022-09-06T00:05:10.285Z,5.78
2022-09-06T00:05:52.019Z,5.60
2022-09-06T00:06:33.741Z,5.28
2022-09-06T00:07:15.469Z,3.50
2022-09-06T00:08:01.611Z,5.38
2022-09-06T00:08:44.543Z,4.25
2022-09-06T00:09:26.222Z,4.80
2022-09-06T00:10:08.768Z,4.20
2022-09-06T00:11:01.074Z,5.05
2022-09-06T00:11:43.110Z,4.78
2022-09-06T00:12:25.329Z,5.13
2022-09-06T00:13:09.254Z,4.30
2022-09-06T00:13:50.966Z,4.43
2022-09-06T00:14:32.711Z,5.63
2022-09-06T00:15:14.434Z,5.47
2022-09-06T00:15:56.286Z,8.10
2022-09-06T00:16:40.587Z,7.82
2022-09-06T00:17:22.637Z,5.53
2022-09-06T00:18:06.425Z,6.22
2022-09-06T00:18:48.119Z,8.55
2022-09-06T00:19:29.810Z,6.43
2022-09-06T00:20:11.566Z,8.80
2022-09-06T00:20:53.251Z,7.15
2022-09-06T00:21:35.645Z,6.95
2022-09-06T00:22:17.527Z,8.70
2022-09-06T00:23:01.196Z,6.80
2022-09-06T00:23:43.180Z,8.75
2022-09-06T00:24:24.930Z,13.05
2022-09-06T00:25:07.807Z,8.88
2022-09-06T00:25:49.526Z,7.38
2022-09-06T00:26:31.783Z,7.43
2022-09-06T00:27:13.586Z,5.55
2022-09-06T00:27:57.232Z,6.22
2022-09-06T00:28:39.361Z,5.72
2022-09-06T00:29:21.090Z,6.03
2022-09-06T00:30:04.629Z,4.97
2022-09-06T00:30:46.433Z,5.72
2022-09-06T00:31:28.754Z,8.70
2022-09-06T00:32:10.578Z,6.43
2022-09-06T00:32:53.242Z,7.45
2022-09-06T00:33:35.017Z,11.32
2022-09-06T00:34:16.703Z,8.02
2022-09-06T00:34:58.406Z,6.90
2022-09-06T00:35:40.174Z,7.18
2022-09-06T00:36:22.658Z,5.95
2022-09-06T00:37:04.369Z,9.80
2022-09-06T00:37:46.663Z,12.48
2022-09-06T00:38:28.503Z,9.75
2022-09-06T00:39:10.222Z,11.43
2022-09-06T00:39:51.976Z,10.32
2022-09-06T00:40:35.663Z,7.32
2022-09-06T00:41:17.519Z,7.00
2022-09-06T00:41:59.223Z,5.82
2022-09-06T00:42:41.095Z,6.38
2022-09-06T00:43:23.192Z,6.68
2022-09-06T00:44:04.953Z,7.90
2022-09-06T00:44:47.197Z,4.78
2022-09-06T00:45:29.635Z,5.60
2022-09-06T00:46:18.960Z,15.10
2022-09-06T00:47:00.786Z,11.38
2022-09-06T00:47:43.668Z,10.07
2022-09-06T00:48:25.996Z,12.88
2022-09-06T00:49:16.848Z,8.32
2022-09-06T00:50:00.574Z,7.18
2022-09-06T00:50:44.018Z,6.82
2022-09-06T00:51:28.913Z,8.95
2022-09-06T00:52:12.994Z,8.85
2022-09-06T00:52:54.863Z,8.52
2022-09-06T00:53:36.851Z,6.20
2022-09-06T00:54:18.847Z,6.40
2022-09-06T00:55:01.092Z,8.43
2022-09-06T00:55:43.195Z,6.82
2022-09-06T00:56:26.217Z,9.45
2022-09-06T00:57:08.397Z,8.70
2022-09-06T00:57:51.536Z,7.95
2022-09-06T00:58:33.594Z,7.00
2022-09-06T00:59:16.301Z,5.70
2022-09-06T00:59:59.616Z,8.77
2022-09-06T01:00:41.355Z,7.82
2022-09-06T01:01:23.348Z,6.43
2022-09-06T01:02:05.630Z,9.43
2022-09-06T01:02:48.922Z,8.38
2022-09-06T01:03:31.306Z,8.82
2022-09-06T01:04:13.750Z,9.70
2022-09-06T01:04:55.909Z,15.05
2022-09-06T01:06:05.345Z,7.40
2022-09-06T01:07:06.260Z,10.15
2022-09-06T01:07:50.933Z,8.93
2022-09-06T01:08:59.355Z,7.40
2022-09-06T01:10:05.869Z,10.18
2022-09-06T01:10:50.655Z,7.80
2022-09-06T01:11:57.385Z,8.68
2022-09-06T01:12:58.560Z,9.00
2022-09-06T01:13:43.121Z,8.77
2022-09-06T01:14:49.166Z,9.52
2022-09-06T01:15:40.031Z,6.80
2022-09-06T01:16:50.254Z,10.90
2022-09-06T01:17:35.032Z,7.70
2022-09-06T01:18:42.593Z,7.05
2022-09-06T01:19:50.246Z,13.70
2022-09-06T01:20:34.854Z,7.88
2022-09-06T01:21:22.401Z,7.15
2022-09-06T01:22:20.129Z,11.00
2022-09-06T01:23:24.159Z,7.95
2022-09-06T01:24:19.489Z,8.75
2022-09-06T01:25:29.998Z,7.72
2022-09-06T01:26:29.934Z,10.25
2022-09-06T01:27:11.830Z,8.25
2022-09-06T01:28:02.454Z,9.52
2022-09-06T01:28:46.015Z,7.95
2022-09-06T01:29:34.422Z,7.57
2022-09-06T01:30:18.846Z,8.10
2022-09-06T01:31:22.751Z,11.23
2022-09-06T01:32:21.305Z,9.80
2022-09-06T01:33:35.174Z,8.27
2022-09-06T01:34:22.842Z,9.25
2022-09-06T01:35:27.063Z,9.18
2022-09-06T01:36:13.811Z,6.70
2022-09-06T01:37:16.754Z,7.18
2022-09-06T01:38:00.377Z,8.27
2022-09-06T01:38:42.195Z,8.10
2022-09-06T01:39:33.151Z,8.85
2022-09-06T01:40:15.200Z,9.40
2022-09-06T01:40:56.937Z,6.18
2022-09-06T01:41:38.655Z,9.73
2022-09-06T01:42:24.320Z,6.55
2022-09-06T01:43:13.041Z,6.40
2022-09-06T01:43:56.285Z,10.77
2022-09-06T01:44:41.975Z,7.65
2022-09-06T01:45:45.340Z,8.07
2022-09-06T01:46:33.430Z,8.18
2022-09-06T01:47:49.085Z,7.45
2022-09-06T01:48:55.668Z,6.80
2022-09-06T01:49:52.488Z,6.90
2022-09-06T01:50:39.392Z,6.38
2022-09-06T01:51:24.311Z,6.93
2022-09-06T01:52:45.445Z,8.57
2022-09-06T01:53:36.377Z,6.47
2022-09-06T01:54:33.287Z,7.40
2022-09-06T01:55:32.147Z,7.57
2022-09-06T01:56:49.707Z,7.50
2022-09-06T01:57:50.395Z,5.70
2022-09-06T01:58:53.721Z,6.28
2022-09-06T02:00:04.249Z,5.90
2022-09-06T02:00:57.285Z,7.53
2022-09-06T02:01:55.664Z,5.30
2022-09-06T02:02:56.404Z,9.27
2022-09-06T02:04:02.334Z,7.40
2022-09-06T02:04:48.986Z,8.80
2022-09-06T02:05:43.198Z,9.32
2022-09-06T02:06:29.957Z,8.65
2022-09-06T02:07:18.452Z,8.20
2022-09-06T02:08:08.553Z,7.85
2022-09-06T02:08:55.767Z,8.13
2022-09-06T02:09:43.602Z,7.22
2022-09-06T02:10:50.532Z,7.43
2022-09-06T02:11:38.677Z,10.90
2022-09-06T02:12:22.614Z,11.18
2022-09-06T02:13:07.392Z,6.80
2022-09-06T02:13:55.997Z,8.90
2022-09-06T02:14:45.427Z,8.45
2022-09-06T02:15:37.049Z,7.70
2022-09-06T02:16:23.447Z,10.90
2022-09-06T02:17:08.846Z,7.65
2022-09-06T02:18:13.146Z,8.10
2022-09-06T02:19:03.395Z,7.80
2022-09-06T02:20:02.650Z,6.50
2022-09-06T02:20:54.190Z,7.63
2022-09-06T02:21:40.700Z,9.93
2022-09-06T02:22:27.290Z,7.80
2022-09-06T02:23:09.968Z,9.43
2022-09-06T02:23:55.242Z,14.23
2022-09-06T02:24:40.652Z,12.13
2022-09-06T02:25:28.501Z,9.65
2022-09-06T02:26:17.491Z,9.00
2022-09-06T02:26:59.192Z,8.05
2022-09-06T02:27:40.911Z,8.35
2022-09-06T02:28:23.054Z,8.55
2022-09-06T02:29:05.112Z,10.40
2022-09-06T02:29:46.957Z,8.57
2022-09-06T02:30:29.121Z,6.85
2022-09-06T02:31:19.592Z,9.02
2022-09-06T02:32:04.441Z,9.57
2022-09-06T02:33:06.594Z,11.10
2022-09-06T02:33:50.488Z,8.68
2022-09-06T02:34:32.389Z,8.27
2022-09-06T02:35:16.664Z,11.00
2022-09-06T02:36:07.838Z,9.80
2022-09-06T02:36:50.048Z,6.75
2022-09-06T02:37:31.792Z,6.93
2022-09-06T02:38:15.005Z,8.88
2022-09-06T02:38:59.338Z,11.77
2022-09-06T02:39:41.069Z,7.25
2022-09-06T02:40:23.235Z,8.48
2022-09-06T02:41:06.300Z,9.30
2022-09-06T02:41:48.665Z,11.30
2022-09-06T02:42:30.443Z,9.05
2022-09-06T02:43:12.168Z,9.10
2022-09-06T02:43:53.861Z,7.20
2022-09-06T02:44:35.562Z,7.45
2022-09-06T02:45:17.333Z,7.80
2022-09-06T02:45:59.296Z,7.78
2022-09-06T02:46:41.172Z,7.93
2022-09-06T02:47:22.867Z,8.35
2022-09-06T02:48:04.736Z,10.85
2022-09-06T02:48:46.865Z,8.63
2022-09-06T02:49:28.800Z,7.00
2022-09-06T02:50:10.652Z,10.90
2022-09-06T02:50:52.376Z,8.95
2022-09-06T02:51:38.961Z,9.13
2022-09-06T02:52:20.670Z,9.55
2022-09-06T02:53:11.254Z,7.78
2022-09-06T02:53:53.125Z,7.70
2022-09-06T02:54:34.810Z,8.40
2022-09-06T02:55:16.553Z,8.45
2022-09-06T02:55:58.415Z,10.00
2022-09-06T02:56:40.160Z,10.20
2022-09-06T02:57:21.900Z,11.23
2022-09-06T02:58:04.802Z,10.15
2022-09-06T02:58:46.547Z,8.15
2022-09-06T02:59:28.341Z,9.63
2022-09-06T03:00:10.722Z,9.23
2022-09-06T03:00:53.161Z,8.27
2022-09-06T03:01:34.956Z,7.05
2022-09-06T03:02:16.794Z,7.75
2022-09-06T03:02:58.672Z,10.20
2022-09-06T03:03:40.413Z,9.88
2022-09-06T03:04:22.112Z,9.52
2022-09-06T03:05:03.999Z,7.18
2022-09-06T03:05:50.323Z,8.23
2022-09-06T03:06:32.566Z,9.80
2022-09-06T03:07:14.254Z,8.63
2022-09-06T03:07:56.735Z,7.97
2022-09-06T03:08:38.443Z,9.70
2022-09-06T03:09:20.558Z,10.53
2022-09-06T03:10:02.853Z,7.57
2022-09-06T03:10:56.121Z,7.82
2022-09-06T03:11:38.078Z,7.28
2022-09-06T03:12:19.745Z,8.25
2022-09-06T03:13:01.505Z,8.90
2022-09-06T03:13:43.210Z,9.50
2022-09-06T03:14:24.915Z,10.15
2022-09-06T03:15:06.984Z,9.98
2022-09-06T03:15:56.998Z,10.02
2022-09-06T03:16:38.823Z,7.93
2022-09-06T03:17:20.570Z,10.52
2022-09-06T03:18:02.297Z,9.80
2022-09-06T03:18:44.121Z,6.90
2022-09-06T03:19:25.850Z,8.70
2022-09-06T03:20:09.638Z,7.60
2022-09-06T03:20:52.766Z,7.45
2022-09-06T03:21:34.598Z,8.60
2022-09-06T03:22:16.285Z,6.90
2022-09-06T03:22:57.996Z,6.90
2022-09-06T03:23:39.692Z,10.30
2022-09-06T03:24:21.379Z,6.45
2022-09-06T03:25:03.365Z,6.32
2022-09-06T03:25:45.229Z,6.85
2022-09-06T03:26:27.907Z,10.60
2022-09-06T03:27:09.622Z,8.80
2022-09-06T03:27:51.746Z,8.90
2022-09-06T03:28:34.086Z,7.32
2022-09-06T03:29:16.145Z,7.00
2022-09-06T03:29:57.865Z,8.32
2022-09-06T03:30:40.535Z,9.50
2022-09-06T03:31:22.356Z,6.35
2022-09-06T03:32:04.141Z,7.70
2022-09-06T03:32:45.807Z,10.98
2022-09-06T03:33:27.538Z,8.70
2022-09-06T03:34:11.224Z,9.00
2022-09-06T03:34:53.086Z,13.50
2022-09-06T03:35:34.773Z,11.90
2022-09-06T03:36:17.032Z,7.82
2022-09-06T03:36:58.823Z,6.30
2022-09-06T03:37:40.530Z,8.02
2022-09-06T03:38:23.302Z,9.10
2022-09-06T03:39:05.711Z,7.70
2022-09-06T03:39:47.582Z,7.75
2022-09-06T03:40:29.404Z,9.32
2022-09-06T03:41:11.179Z,9.45
2022-09-06T03:41:52.914Z,8.13
2022-09-06T03:42:34.636Z,8.30
2022-09-06T03:43:18.357Z,9.88
2022-09-06T03:44:00.306Z,8.95
2022-09-06T03:44:42.045Z,6.55
2022-09-06T03:45:23.759Z,7.20
2022-09-06T03:46:05.662Z,6.00
2022-09-06T03:46:47.414Z,8.60
2022-09-06T03:47:29.125Z,9.90
2022-09-06T03:48:10.808Z,8.65
2022-09-06T03:48:52.490Z,7.15
2022-09-06T03:49:34.199Z,6.70
2022-09-06T03:50:16.024Z,7.80
2022-09-06T03:50:58.933Z,9.48
2022-09-06T03:51:40.670Z,7.20
2022-09-06T03:52:22.399Z,7.55
2022-09-06T03:53:04.118Z,8.88
2022-09-06T03:53:45.878Z,9.27
2022-09-06T03:54:29.024Z,6.82
2022-09-06T03:55:11.892Z,7.20
2022-09-06T03:55:55.404Z,7.60
2022-09-06T03:56:37.099Z,9.57
2022-09-06T03:57:18.840Z,9.02
2022-09-06T03:58:00.535Z,8.18
2022-09-06T03:58:42.287Z,9.18
2022-09-06T03:59:24.016Z,7.70
2022-09-06T04:00:06.343Z,7.75
2022-09-06T04:00:48.073Z,7.35
2022-09-06T04:01:30.083Z,8.10
2022-09-06T04:02:12.005Z,8.30
2022-09-06T04:02:53.694Z,8.38
2022-09-06T04:03:36.587Z,8.00
2022-09-06T04:04:18.297Z,8.90
2022-09-06T04:04:59.967Z,7.82
2022-09-06T04:05:46.010Z,8.68
2022-09-06T04:06:28.486Z,9.30
2022-09-06T04:07:10.293Z,5.85
2022-09-06T04:07:52.030Z,7.10
2022-09-06T04:08:34.556Z,8.73
2022-09-06T04:09:16.404Z,7.95
2022-09-06T04:09:58.767Z,7.90
2022-09-06T04:10:41.026Z,9.25
2022-09-06T04:11:23.084Z,7.63
2022-09-06T04:12:05.066Z,7.85
2022-09-06T04:12:46.752Z,8.65
2022-09-06T04:13:29.355Z,7.90
2022-09-06T04:14:11.054Z,7.40
2022-09-06T04:14:52.783Z,6.68
2022-09-06T04:15:34.475Z,6.10
2022-09-06T04:16:18.600Z,7.50
2022-09-06T04:17:00.464Z,8.85
2022-09-06T04:17:46.587Z,7.10
2022-09-06T04:18:28.881Z,6.47
2022-09-06T04:19:10.677Z,8.50
2022-09-06T04:19:52.396Z,9.18
2022-09-06T04:20:34.094Z,9.43
2022-09-06T04:21:15.798Z,9.70
2022-09-06T04:21:57.574Z,10.68
2022-09-06T04:22:39.479Z,11.18
2022-09-06T04:23:21.929Z,8.52
2022-09-06T04:24:03.768Z,6.20
2022-09-06T04:24:45.510Z,7.70
2022-09-06T04:25:27.745Z,8.00
2022-09-06T04:26:09.477Z,8.55
2022-09-06T04:26:51.181Z,8.80
2022-09-06T04:27:33.004Z,7.90
2022-09-06T04:28:15.276Z,9.38
2022-09-06T04:28:57.120Z,7.22
2022-09-06T04:29:38.802Z,10.15
2022-09-06T04:30:20.533Z,9.75
2022-09-06T04:31:05.180Z,10.05
2022-09-06T04:31:47.145Z,8.77
2022-09-06T04:32:28.854Z,10.25
2022-09-06T04:33:10.837Z,10.02
2022-09-06T04:33:52.525Z,7.70
2022-09-06T04:34:34.322Z,9.77
2022-09-06T04:35:16.092Z,8.93
2022-09-06T04:36:00.281Z,8.55
2022-09-06T04:36:47.632Z,8.85
2022-09-06T04:37:29.954Z,11.77
2022-09-06T04:38:11.639Z,8.60
2022-09-06T04:38:54.667Z,8.55
2022-09-06T04:39:36.460Z,9.10
2022-09-06T04:40:18.149Z,9.80
2022-09-06T04:40:59.840Z,8.85
2022-09-06T04:41:42.570Z,7.65
2022-09-06T04:42:24.325Z,8.75
2022-09-06T04:43:06.018Z,8.63
2022-09-06T04:43:49.021Z,9.05
2022-09-06T04:44:30.739Z,8.00
2022-09-06T04:45:12.478Z,10.63
2022-09-06T04:45:54.231Z,10.85
2022-09-06T04:46:35.994Z,10.65
2022-09-06T04:47:19.188Z,9.93
2022-09-06T04:48:00.881Z,9.98
2022-09-06T04:48:42.606Z,8.27
2022-09-06T04:49:24.343Z,9.95
2022-09-06T04:50:06.463Z,11.18
2022-09-06T04:50:48.149Z,11.40
2022-09-06T04:51:29.823Z,11.50
2022-09-06T04:52:12.378Z,9.88
2022-09-06T04:52:54.073Z,7.72
2022-09-06T04:53:35.782Z,8.20
2022-09-06T04:54:17.466Z,8.02
2022-09-06T04:54:59.203Z,8.10
2022-09-06T04:55:41.079Z,8.93
2022-09-06T04:56:25.231Z,8.00
2022-09-06T04:57:07.412Z,7.65
2022-09-06T04:57:51.273Z,9.50
2022-09-06T04:58:33.214Z,8.45
2022-09-06T04:59:14.901Z,8.80
2022-09-06T04:59:56.735Z,8.18
2022-09-06T05:00:44.481Z,11.40
2022-09-06T05:01:26.431Z,12.65
2022-09-06T05:02:08.397Z,11.45
2022-09-06T05:02:50.197Z,25.42
2022-09-06T05:03:31.886Z,10.73
2022-09-06T05:04:13.615Z,9.65
2022-09-06T05:04:55.361Z,8.35
2022-09-06T05:05:37.034Z,8.38
2022-09-06T05:06:23.563Z,7.75
2022-09-06T05:07:07.704Z,11.15
2022-09-06T05:07:56.422Z,10.88
2022-09-06T05:08:41.795Z,9.63
2022-09-06T05:09:23.511Z,10.57
2022-09-06T05:10:06.123Z,8.75
2022-09-06T05:10:51.519Z,8.20
2022-09-06T05:11:33.525Z,13.20
2022-09-06T05:12:15.231Z,9.70
2022-09-06T05:12:56.974Z,7.40
2022-09-06T05:13:39.226Z,8.45
2022-09-06T05:14:21.800Z,9.13
2022-09-06T05:15:03.688Z,11.25
2022-09-06T05:15:45.469Z,10.57
2022-09-06T05:16:27.288Z,10.20
2022-09-06T05:17:09.014Z,11.73
2022-09-06T05:17:50.772Z,8.30
2022-09-06T05:18:33.333Z,9.75
2022-09-06T05:19:15.176Z,10.57
2022-09-06T05:19:56.960Z,8.65
2022-09-06T05:20:38.683Z,10.52
2022-09-06T05:21:20.480Z,8.38
2022-09-06T05:22:02.158Z,9.15
2022-09-06T05:22:43.886Z,9.23
2022-09-06T05:23:26.693Z,8.60
2022-09-06T05:24:08.514Z,9.50
2022-09-06T05:24:50.323Z,10.20
2022-09-06T05:25:32.088Z,9.77
2022-09-06T05:26:13.926Z,9.70
2022-09-06T05:26:55.608Z,10.80
2022-09-06T05:27:37.399Z,12.10
2022-09-06T05:28:19.408Z,12.13
2022-09-06T05:29:01.102Z,16.00
2022-09-06T05:29:42.813Z,10.98
2022-09-06T05:30:24.553Z,11.23
2022-09-06T05:31:11.002Z,12.02
2022-09-06T05:31:53.249Z,12.30
2022-09-06T05:32:35.005Z,16.15
2022-09-06T05:33:21.604Z,13.63
2022-09-06T05:34:03.454Z,13.68
2022-09-06T05:34:45.254Z,11.65
2022-09-06T05:35:26.964Z,11.73
2022-09-06T05:36:08.754Z,11.63
2022-09-06T05:36:50.554Z,12.45
2022-09-06T05:37:32.248Z,12.57
2022-09-06T05:38:13.989Z,12.40
2022-09-06T05:38:57.157Z,11.77
2022-09-06T05:39:38.855Z,12.02
2022-09-06T05:40:20.614Z,14.00
2022-09-06T05:41:02.318Z,11.85
2022-09-06T05:41:44.366Z,12.13
2022-09-06T05:42:26.105Z,10.70
2022-09-06T05:43:07.789Z,14.77
2022-09-06T05:43:49.652Z,14.98
2022-09-06T05:44:31.335Z,13.32
2022-09-06T05:45:13.062Z,12.15
2022-09-06T05:45:54.878Z,12.48
2022-09-06T05:46:43.070Z,13.88
2022-09-06T05:47:24.760Z,12.23
2022-09-06T05:48:06.469Z,12.38
2022-09-06T05:48:56.147Z,13.35
2022-09-06T05:49:37.827Z,14.18
2022-09-06T05:50:19.529Z,12.57
2022-09-06T05:51:13.739Z,12.90
2022-09-06T05:51:55.453Z,13.07
2022-09-06T05:52:38.131Z,10.88
2022-09-06T05:53:19.849Z,13.25
2022-09-06T05:54:01.521Z,13.77
2022-09-06T05:54:43.216Z,11.13
2022-09-06T05:55:24.986Z,10.30
2022-09-06T05:56:07.861Z,13.23
2022-09-06T05:56:49.638Z,11.00
2022-09-06T05:57:31.326Z,11.30
2022-09-06T05:58:13.027Z,11.25
2022-09-06T05:58:54.814Z,12.27
2022-09-06T05:59:36.517Z,13.10
2022-09-06T06:00:18.282Z,12.75
2022-09-06T06:01:19.531Z,11.05
2022-09-06T06:02:05.379Z,12.48
2022-09-06T06:02:49.728Z,13.10
2022-09-06T06:03:31.473Z,11.55
2022-09-06T06:04:13.166Z,11.07
2022-09-06T06:04:54.899Z,13.20
2022-09-06T06:05:36.582Z,12.02
2022-09-06T06:06:19.374Z,12.10
2022-09-06T06:07:01.671Z,12.68
2022-09-06T06:07:43.582Z,11.88
2022-09-06T06:08:25.346Z,13.52
2022-09-06T06:09:07.149Z,13.75
2022-09-06T06:09:48.841Z,12.27
2022-09-06T06:10:30.526Z,11.20
2022-09-06T06:11:12.585Z,13.10
2022-09-06T06:11:54.303Z,11.98
2022-09-06T06:12:36.039Z,13.60
2022-09-06T06:13:17.769Z,10.60
2022-09-06T06:13:59.820Z,10.80
2022-09-06T06:14:41.494Z,12.63
2022-09-06T06:15:23.253Z,11.25
2022-09-06T06:16:09.353Z,10.75
2022-09-06T06:16:51.147Z,11.13
2022-09-06T06:17:32.966Z,11.63
2022-09-06T06:18:14.649Z,12.05
2022-09-06T06:18:56.742Z,11.85
2022-09-06T06:19:38.476Z,13.82
2022-09-06T06:20:20.198Z,9.90
2022-09-06T06:21:15.938Z,12.52
2022-09-06T06:21:58.365Z,13.55
2022-09-06T06:22:40.137Z,11.18
2022-09-06T06:23:22.273Z,12.43
2022-09-06T06:24:05.318Z,12.68
2022-09-06T06:24:47.002Z,10.82
2022-09-06T06:25:28.750Z,10.48
2022-09-06T06:26:12.222Z,11.35
2022-09-06T06:26:54.101Z,11.85
2022-09-06T06:27:37.075Z,12.55
2022-09-06T06:28:18.768Z,10.85
2022-09-06T06:29:02.358Z,10.30
2022-09-06T06:29:44.051Z,9.88
2022-09-06T06:30:25.761Z,11.77
2022-09-06T06:31:09.051Z,13.10
2022-09-06T06:31:50.937Z,9.73
2022-09-06T06:32:32.730Z,10.77
2022-09-06T06:33:14.414Z,11.60
2022-09-06T06:33:56.343Z,11.88
2022-09-06T06:34:38.201Z,14.27
2022-09-06T06:35:19.918Z,9.93
2022-09-06T06:36:05.942Z,9.18
2022-09-06T06:36:47.861Z,9.70
2022-09-06T06:37:29.560Z,10.45
2022-09-06T06:38:11.816Z,11.18
2022-09-06T06:38:55.349Z,13.13
2022-09-06T06:39:38.326Z,9.57
2022-09-06T06:40:20.147Z,9.30
2022-09-06T06:41:06.398Z,11.90
2022-09-06T06:41:50.691Z,12.80
2022-09-06T06:42:32.400Z,11.48
2022-09-06T06:43:14.090Z,14.40
2022-09-06T06:44:06.257Z,9.40
2022-09-06T06:44:48.012Z,12.13
2022-09-06T06:45:29.774Z,11.05
2022-09-06T06:46:13.932Z,10.30
2022-09-06T06:46:57.907Z,11.13
2022-09-06T06:47:39.621Z,11.88
2022-09-06T06:48:21.929Z,13.40
2022-09-06T06:49:04.437Z,13.32
2022-09-06T06:49:46.133Z,11.13
2022-09-06T06:50:27.883Z,11.13
2022-09-06T06:51:12.015Z,12.02
2022-09-06T06:51:53.740Z,10.93
2022-09-06T06:52:35.475Z,10.27
2022-09-06T06:53:17.227Z,11.55
2022-09-06T06:53:59.890Z,10.15
2022-09-06T06:54:41.659Z,11.35
2022-09-06T06:55:23.376Z,14.85
2022-09-06T06:56:16.085Z,11.90
2022-09-06T06:56:57.802Z,12.35
2022-09-06T06:57:39.501Z,10.35
2022-09-06T06:58:21.633Z,11.73
2022-09-06T06:59:05.492Z,11.98
2022-09-06T06:59:47.186Z,12.55
2022-09-06T07:00:28.939Z,10.00
2022-09-06T07:01:11.475Z,10.85
2022-09-06T07:01:53.493Z,12.05
2022-09-06T07:02:35.325Z,10.98
2022-09-06T07:03:17.147Z,10.88
2022-09-06T07:03:59.276Z,13.55
2022-09-06T07:04:41.736Z,10.32
2022-09-06T07:08:16.778Z,9.45
2022-09-06T07:08:58.925Z,9.30
2022-09-06T07:10:42.675Z,10.55
2022-09-06T07:11:24.946Z,11.43
2022-09-06T07:12:06.919Z,11.30
2022-09-06T07:12:48.624Z,10.50
2022-09-06T07:13:31.240Z,10.70
2022-09-06T07:14:13.011Z,10.98
2022-09-06T07:14:54.932Z,8.65
2022-09-06T07:15:36.630Z,8.65
2022-09-06T07:16:20.122Z,10.40
2022-09-06T07:17:03.308Z,8.82
2022-09-06T07:17:47.873Z,11.93
2022-09-06T07:18:29.593Z,11.73
2022-09-06T07:20:14.048Z,11.13
2022-09-06T07:22:02.875Z,8.60
2022-09-06T07:22:47.122Z,9.60
2022-09-06T07:24:30.710Z,7.15
2022-09-06T07:25:17.616Z,9.00
2022-09-06T07:26:02.202Z,8.93
2022-09-06T07:28:32.441Z,7.40
2022-09-06T07:29:14.232Z,9.95
2022-09-06T07:29:55.934Z,7.38
2022-09-06T07:30:37.962Z,6.72
2022-09-06T07:32:21.498Z,6.40
2022-09-06T07:33:07.005Z,7.07
2022-09-06T07:33:52.511Z,7.63
2022-09-06T07:34:39.478Z,5.70
2022-09-06T07:35:21.235Z,7.70
2022-09-06T07:36:04.601Z,7.25
2022-09-06T07:36:46.413Z,8.85
2022-09-06T07:37:28.086Z,8.10
2022-09-06T07:38:09.813Z,11.50
2022-09-06T07:38:51.777Z,8.85
2022-09-06T07:39:33.583Z,6.95
2022-09-06T07:40:15.413Z,5.90
2022-09-06T07:40:59.420Z,8.15
2022-09-06T07:41:42.474Z,6.88
2022-09-06T07:42:24.199Z,6.97
2022-09-06T07:43:05.880Z,9.05
2022-09-06T07:43:47.745Z,7.32
2022-09-06T07:44:29.698Z,6.95
2022-09-06T07:45:11.936Z,8.95
2022-09-06T07:46:14.146Z,9.38
2022-09-06T07:47:59.635Z,7.00
2022-09-06T07:48:43.031Z,9.18
2022-09-06T07:49:24.748Z,7.53
2022-09-06T07:51:13.739Z,6.13
2022-09-06T07:51:55.479Z,5.90
2022-09-06T07:53:41.081Z,6.82
2022-09-06T07:54:31.271Z,7.72
2022-09-06T07:55:13.363Z,10.38
2022-09-06T07:55:55.071Z,7.30
2022-09-06T07:56:37.019Z,6.03
2022-09-06T07:57:18.764Z,7.13
2022-09-06T07:58:00.523Z,12.35
2022-09-06T07:58:42.274Z,10.68
2022-09-06T07:59:24.054Z,9.27
2022-09-06T08:00:06.223Z,8.13
2022-09-06T08:00:47.990Z,7.15
2022-09-06T08:01:37.924Z,7.82
2022-09-06T08:02:19.760Z,7.85
2022-09-06T08:03:01.508Z,6.70
2022-09-06T08:03:43.443Z,7.57
2022-09-06T08:04:25.193Z,6.32
2022-09-06T08:06:09.965Z,8.20
2022-09-06T08:09:42.876Z,5.18
2022-09-06T08:10:24.639Z,5.60
2022-09-06T08:11:09.122Z,4.63
2022-09-06T08:11:52.605Z,4.90
2022-09-06T08:12:34.325Z,5.47
2022-09-06T08:13:16.047Z,6.95
2022-09-06T08:13:59.022Z,6.05
2022-09-06T08:14:40.768Z,5.00
2022-09-06T08:15:22.503Z,4.88
2022-09-06T08:16:07.381Z,5.70
2022-09-06T08:16:49.216Z,6.50
2022-09-06T08:17:35.786Z,6.43
2022-09-06T08:18:17.491Z,4.40
2022-09-06T08:19:01.671Z,7.97
2022-09-06T08:19:43.427Z,7.05
2022-09-06T08:20:25.178Z,6.15
2022-09-06T08:21:12.861Z,6.38
2022-09-06T08:21:55.973Z,5.10
2022-09-06T08:22:37.732Z,4.38
2022-09-06T08:23:19.490Z,4.30
2022-09-06T08:24:04.517Z,4.22
2022-09-06T08:24:46.239Z,4.60
2022-09-06T08:25:27.996Z,5.25
2022-09-06T08:26:10.123Z,7.57
2022-09-06T08:26:51.839Z,3.70
2022-09-06T08:27:33.981Z,4.20
2022-09-06T08:28:15.771Z,5.05
2022-09-06T08:29:02.252Z,4.50
2022-09-06T08:29:43.989Z,6.22
2022-09-06T08:30:27.590Z,6.45
2022-09-06T08:31:17.058Z,4.85
2022-09-06T08:31:58.915Z,6.43
2022-09-06T08:32:42.707Z,4.55
2022-09-06T08:33:25.567Z,5.30
2022-09-06T08:34:07.895Z,6.57
2022-09-06T08:34:49.702Z,5.70
2022-09-06T08:35:31.599Z,6.93
2022-09-06T08:36:14.082Z,7.00
2022-09-06T08:36:55.837Z,6.25
2022-09-06T08:37:37.538Z,4.82
2022-09-06T08:38:19.229Z,4.82
2022-09-06T08:39:03.347Z,4.50
2022-09-06T08:39:45.200Z,6.22
2022-09-06T08:40:26.995Z,7.18
2022-09-06T08:41:14.470Z,6.40
2022-09-06T08:42:05.464Z,5.30
2022-09-06T08:42:47.908Z,4.10
2022-09-06T08:43:29.609Z,5.05
2022-09-06T08:45:21.690Z,5.20
2022-09-06T08:46:04.662Z,5.45
2022-09-06T08:47:00.160Z,4.85
2022-09-06T08:47:41.950Z,4.30
2022-09-06T08:48:26.163Z,4.55
2022-09-06T08:49:09.400Z,6.57
2022-09-06T08:49:55.267Z,5.93
2022-09-06T08:50:39.832Z,4.30
2022-09-06T08:51:49.390Z,5.32
2022-09-06T08:54:11.104Z,4.13
2022-09-06T08:54:52.781Z,3.47
2022-09-06T08:55:47.990Z,5.53
2022-09-06T08:56:37.989Z,4.60
2022-09-06T08:57:51.004Z,3.70
2022-09-06T08:58:57.831Z,3.97
2022-09-06T08:59:41.005Z,4.88
2022-09-06T09:00:23.535Z,4.90
2022-09-06T09:01:16.687Z,4.15
2022-09-06T09:02:13.553Z,6.15
2022-09-06T09:03:06.938Z,4.60
2022-09-06T09:03:48.793Z,4.03
2022-09-06T09:04:31.886Z,5.30
2022-09-06T09:05:30.383Z,4.80
2022-09-06T09:06:12.385Z,4.32
2022-09-06T09:07:02.326Z,5.27
2022-09-06T09:07:50.075Z,4.25
2022-09-06T09:08:59.144Z,5.88
2022-09-06T09:09:40.995Z,4.72
2022-09-06T09:10:41.478Z,4.80
2022-09-06T09:11:25.527Z,3.70
2022-09-06T09:12:08.813Z,4.65
2022-09-06T09:12:50.887Z,4.65
2022-09-06T09:13:47.541Z,5.00
2022-09-06T09:14:36.506Z,4.00
2022-09-06T09:15:20.732Z,4.22
2022-09-06T09:16:02.730Z,5.00
2022-09-06T09:16:44.586Z,6.00
2022-09-06T09:17:29.164Z,4.38
2022-09-06T09:18:11.170Z,6.30
2022-09-06T09:18:56.063Z,6.03
2022-09-06T09:19:39.552Z,3.75
2022-09-06T09:20:21.866Z,6.88
2022-09-06T09:21:04.197Z,7.73
2022-09-06T09:21:46.024Z,5.10
2022-09-06T09:22:28.075Z,6.60
2022-09-06T09:23:09.842Z,5.25
2022-09-06T09:23:57.166Z,5.00
2022-09-06T09:24:39.234Z,4.50
2022-09-06T09:25:24.795Z,5.40
2022-09-06T09:26:14.047Z,4.97
2022-09-06T09:27:06.726Z,4.03
2022-09-06T09:27:57.207Z,4.20
2022-09-06T09:28:39.041Z,3.70
2022-09-06T09:29:26.829Z,3.22
2022-09-06T09:31:14.239Z,4.88
2022-09-06T09:31:57.013Z,3.67
2022-09-06T09:32:44.859Z,3.63
2022-09-06T09:33:35.534Z,4.47
2022-09-06T09:34:35.958Z,3.40
2022-09-06T09:35:32.920Z,3.70
2022-09-06T09:36:14.686Z,6.05
2022-09-06T09:38:30.127Z,3.53
2022-09-06T09:39:12.338Z,4.43
2022-09-06T09:39:57.857Z,5.32
2022-09-06T09:40:48.828Z,3.95
2022-09-06T09:41:33.681Z,3.90
2022-09-06T09:42:44.826Z,5.90
2022-09-06T09:43:33.571Z,5.25
2022-09-06T09:44:19.562Z,3.53
2022-09-06T09:45:02.861Z,3.72
2022-09-06T09:45:45.377Z,3.80
2022-09-06T09:46:45.351Z,4.80
2022-09-06T09:47:32.221Z,3.58
2022-09-06T09:48:27.510Z,6.85
2022-09-06T09:49:13.450Z,4.90
2022-09-06T09:49:56.259Z,3.80
2022-09-06T09:50:38.000Z,3.70
2022-09-06T09:51:27.424Z,4.03
2022-09-06T09:52:10.764Z,4.32
2022-09-06T09:52:52.566Z,3.70
2022-09-06T09:53:49.192Z,5.32
2022-09-06T09:54:32.362Z,3.85
2022-09-06T09:55:14.137Z,3.25
2022-09-06T09:55:59.435Z,4.90
2022-09-06T09:56:52.809Z,5.30
2022-09-06T09:57:46.574Z,5.22
2022-09-06T09:58:35.427Z,7.25
2022-09-06T09:59:33.201Z,7.03
2022-09-06T10:00:31.391Z,5.60
2022-09-06T10:01:18.237Z,4.82
2022-09-06T10:02:02.961Z,4.88
2022-09-06T10:02:44.693Z,3.10
2022-09-06T10:03:30.611Z,4.15
2022-09-06T10:05:21.461Z,5.10
2022-09-06T10:07:23.671Z,4.18
2022-09-06T10:08:10.965Z,3.25
2022-09-06T10:08:54.608Z,4.60
2022-09-06T10:09:39.265Z,3.63
2022-09-06T10:10:29.714Z,4.50
2022-09-06T10:11:15.265Z,5.30
2022-09-06T10:11:59.066Z,4.03
2022-09-06T10:12:42.565Z,4.00
2022-09-06T10:13:29.649Z,4.60
2022-09-06T10:14:25.403Z,4.63